Time;durP1;ratioP1;P1;durP2;ratioP2;P2;SDS_P1;SDS_P2;PMS_P1;PMS_P2;Temp;Humidity;BMP_temperature;BMP_pressure;BME280_temperature;BME280_humidity;BME280_pressure;Samples;Min_cycle;Max_cycle;Signal;HPM_P1;HPM_P2
2021/08/18 00:01:25;;;;;;;1.27;0.35;;;;;;;30.25;23.13;98099.94;5060800;28;20477;-82
2021/08/18 00:03:51;;;;;;;1.80;0.40;;;;;;;30.03;23.47;98093.72;5059745;28;20033;-82
2021/08/18 00:06:17;;;;;;;0.38;0.30;;;;;;;29.77;23.63;98098.13;5061532;28;20530;-82
2021/08/18 00:08:45;;;;;;;0.50;0.30;;;;;;;29.92;23.86;98102.69;5059422;28;20037;-82
2021/08/18 00:11:11;;;;;;;0.30;0.30;;;;;;;30.07;23.80;98100.00;5053284;28;20025;-82
2021/08/18 00:13:37;;;;;;;0.57;0.43;;;;;;;29.81;24.04;98104.41;5061026;28;20135;-81
2021/08/18 00:16:04;;;;;;;1.10;0.47;;;;;;;29.51;24.11;98108.16;5067771;28;20037;-82
2021/08/18 00:18:30;;;;;;;0.40;0.30;;;;;;;29.72;23.96;98107.22;5053536;28;20033;-82
2021/08/18 00:20:56;;;;;;;0.68;0.60;;;;;;;29.61;24.54;98106.91;5053365;28;20029;-82
2021/08/18 00:23:22;;;;;;;0.22;0.22;;;;;;;29.33;24.64;98106.91;5061697;28;20418;-82
2021/08/18 00:25:49;;;;;;;0.55;0.30;;;;;;;29.65;24.38;98113.19;5062840;28;20037;-82
2021/08/18 00:28:15;;;;;;;0.68;0.40;;;;;;;29.73;24.00;98117.28;5060002;28;20037;-81
2021/08/18 00:30:41;;;;;;;0.40;0.40;;;;;;;29.73;24.41;98108.81;5066663;28;20431;-81
2021/08/18 00:33:08;;;;;;;0.52;0.22;;;;;;;30.03;24.15;98099.38;5060660;28;20419;-82
2021/08/18 00:35:34;;;;;;;2.35;0.40;;;;;;;29.89;24.21;98089.50;5057237;28;20033;-81
2021/08/18 00:38:00;;;;;;;0.70;0.35;;;;;;;29.86;24.16;98098.91;5063934;28;20396;-81
2021/08/18 00:40:26;;;;;;;1.55;0.40;;;;;;;29.99;23.94;98101.59;5057026;28;20045;-81
2021/08/18 00:42:53;;;;;;;0.52;0.35;;;;;;;30.10;23.70;98096.22;5071489;28;20041;-81
2021/08/18 00:45:20;;;;;;;0.20;0.20;;;;;;;30.31;23.58;98102.94;5059787;28;20056;-81
2021/08/18 00:47:49;;;;;;;0.45;0.30;;;;;;;30.34;23.51;98102.78;5064557;28;20045;-82
2021/08/18 00:50:25;;;;;;;0.28;0.28;;;;;;;30.26;23.35;98112.84;5056828;28;20400;-81
2021/08/18 00:52:52;;;;;;;0.30;0.30;;;;;;;29.78;24.26;98102.56;5058041;28;20034;-82
2021/08/18 00:55:21;;;;;;;0.30;0.30;;;;;;;29.50;24.56;98098.13;5056331;28;20079;-81
2021/08/18 00:57:47;;;;;;;0.40;0.30;;;;;;;29.71;24.33;98091.50;5065345;28;20052;-81
2021/08/18 01:00:16;;;;;;;2.00;0.50;;;;;;;29.79;24.18;98087.91;5061585;28;20033;-81
2021/08/18 01:02:44;;;;;;;0.40;0.38;;;;;;;29.97;23.85;98104.09;5062327;28;20096;-81
2021/08/18 01:05:22;;;;;;;0.40;0.40;;;;;;;29.87;24.24;98094.81;5061238;28;20083;-82
2021/08/18 01:07:50;;;;;;;0.47;0.30;;;;;;;29.71;24.39;98094.34;5056458;28;20033;-81
2021/08/18 01:10:20;;;;;;;0.57;0.40;;;;;;;29.93;24.07;98103.47;5056246;28;20108;-80
2021/08/18 01:12:47;;;;;;;0.35;0.32;;;;;;;29.96;24.20;98100.50;5063359;28;20064;-81
2021/08/18 01:15:16;;;;;;;0.35;0.20;;;;;;;30.01;24.21;98094.16;5062028;28;20033;-81
2021/08/18 01:17:44;;;;;;;0.40;0.30;;;;;;;30.14;23.81;98096.81;5066084;28;20526;-81
2021/08/18 01:20:14;;;;;;;0.30;0.30;;;;;;;30.35;23.61;98104.38;5059871;28;20524;-81
2021/08/18 01:22:41;;;;;;;0.70;0.32;;;;;;;30.44;23.55;98095.84;5070951;28;20384;-81
2021/08/18 01:25:08;;;;;;;0.38;0.38;;;;;;;30.29;23.93;98096.97;5060642;28;20025;-81
2021/08/18 01:27:37;;;;;;;0.82;0.47;;;;;;;30.23;23.62;98091.13;5057060;28;20044;-81
2021/08/18 01:30:05;;;;;;;0.75;0.30;;;;;;;30.40;23.65;98085.94;5063275;28;20033;-81
2021/08/18 01:32:54;;;;;;;0.68;0.60;;;;;;;30.25;23.60;98082.94;5056138;28;20033;-81
2021/08/18 01:35:24;;;;;;;0.40;0.40;;;;;;;30.48;23.40;98082.28;5062096;28;20029;-81
2021/08/18 01:37:50;;;;;;;0.43;0.32;;;;;;;30.66;23.21;98085.06;5056946;28;20559;-81
2021/08/18 01:40:17;;;;;;;0.50;0.50;;;;;;;30.51;23.46;98081.31;5054926;28;20040;-81
2021/08/18 01:42:43;;;;;;;0.32;0.30;;;;;;;29.76;24.12;98086.03;5055782;28;20041;-81
2021/08/18 01:45:17;;;;;;;0.88;0.40;;;;;;;29.87;24.20;98080.66;5063472;28;20056;-81
2021/08/18 01:47:43;;;;;;;0.75;0.40;;;;;;;29.93;23.99;98078.78;5059359;28;20110;-81
2021/08/18 01:50:10;;;;;;;0.20;0.20;;;;;;;30.14;23.85;98076.22;5061579;28;20036;-81
2021/08/18 01:52:36;;;;;;;0.60;0.30;;;;;;;30.19;23.65;98075.56;5057372;28;20044;-81
2021/08/18 01:55:04;;;;;;;0.63;0.40;;;;;;;30.26;23.74;98073.19;5060953;28;20040;-81
2021/08/18 01:57:31;;;;;;;0.45;0.22;;;;;;;30.38;23.57;98071.47;5055550;28;20029;-81
2021/08/18 01:59:57;;;;;;;0.32;0.22;;;;;;;30.41;23.50;98074.09;5061210;28;20550;-81
2021/08/18 02:02:28;;;;;;;0.30;0.30;;;;;;;30.35;23.90;98078.88;5055425;28;20056;-81
2021/08/18 02:04:54;;;;;;;;;;;;;;;29.90;24.47;98076.09;5056369;28;20029;-81
2021/08/18 02:07:20;;;;;;;0.30;0.30;;;;;;;30.14;23.83;98079.03;5070165;28;20011;-81
2021/08/18 02:09:46;;;;;;;1.75;0.20;;;;;;;30.32;24.06;98087.50;5055234;28;20124;-81
2021/08/18 02:12:13;;;;;;;1.02;0.20;;;;;;;30.19;24.20;98078.41;5061847;28;20032;-81
2021/08/18 02:14:40;;;;;;;0.32;0.30;;;;;;;30.32;23.68;98065.63;5058904;28;20369;-81
2021/08/18 02:17:06;;;;;;;1.23;0.28;;;;;;;30.62;23.42;98072.31;5063563;28;20040;-81
2021/08/18 02:19:32;;;;;;;0.40;0.40;;;;;;;30.85;23.08;98062.28;5062067;28;20030;-81
2021/08/18 02:21:58;;;;;;;0.55;0.30;;;;;;;30.61;23.54;98057.34;5055868;28;20037;-81
2021/08/18 02:24:25;;;;;;;0.40;0.40;;;;;;;30.41;23.68;98056.34;5068621;28;20388;-81
2021/08/18 02:26:51;;;;;;;0.20;0.20;;;;;;;30.51;23.60;98060.69;5053516;28;20040;-81
2021/08/18 02:29:17;;;;;;;0.40;0.35;;;;;;;30.70;23.24;98057.31;5058541;28;20071;-81
2021/08/18 02:31:43;;;;;;;0.30;0.30;;;;;;;30.84;23.05;98057.84;5054914;28;20045;-81
2021/08/18 02:34:12;;;;;;;0.40;0.22;;;;;;;30.81;23.38;98062.44;5062802;28;20063;-82
2021/08/18 02:36:38;;;;;;;0.22;0.22;;;;;;;30.39;23.60;98067.34;5056293;28;20087;-81
2021/08/18 02:39:05;;;;;;;0.95;0.40;;;;;;;30.56;23.45;98069.34;5057379;28;20121;-81
2021/08/18 02:41:32;;;;;;;0.50;0.40;;;;;;;30.24;23.87;98072.09;5058305;28;20029;-81
2021/08/18 02:43:58;;;;;;;0.40;0.32;;;;;;;30.02;24.18;98083.63;5054823;28;20393;-82
2021/08/18 02:46:25;;;;;;;0.80;0.40;;;;;;;30.25;23.82;98087.81;5061430;28;20044;-81
2021/08/18 02:48:51;;;;;;;0.35;0.30;;;;;;;30.43;23.76;98099.94;5054471;28;20039;-81
2021/08/18 02:51:17;;;;;;;0.30;0.20;;;;;;;30.67;23.41;98092.28;5054359;28;20082;-81
2021/08/18 02:53:43;;;;;;;0.35;0.28;;;;;;;30.84;22.92;98100.38;5054166;28;20033;-81
2021/08/18 02:56:09;;;;;;;0.30;0.30;;;;;;;30.83;23.19;98099.59;5054109;28;20102;-81
2021/08/18 02:58:35;;;;;;;0.70;0.30;;;;;;;30.62;23.52;98109.16;5064566;28;20451;-81
2021/08/18 03:01:02;;;;;;;0.32;0.30;;;;;;;30.43;23.76;98114.13;5055752;28;20037;-81
2021/08/18 03:03:28;;;;;;;0.32;0.30;;;;;;;30.30;24.03;98107.81;5058900;28;20500;-81
2021/08/18 03:05:54;;;;;;;2.72;0.32;;;;;;;30.06;24.18;98112.56;5054724;28;20540;-81
2021/08/18 03:08:20;;;;;;;0.40;0.40;;;;;;;29.86;24.35;98110.25;5054326;28;20060;-81
2021/08/18 03:10:46;;;;;;;0.50;0.28;;;;;;;30.14;24.21;98115.88;5063414;28;20029;-81
2021/08/18 03:13:12;;;;;;;0.30;0.30;;;;;;;30.16;24.24;98110.50;5062714;28;20511;-81
2021/08/18 03:15:38;;;;;;;0.30;0.30;;;;;;;30.35;23.90;98117.75;5062565;28;20066;-81
2021/08/18 03:18:04;;;;;;;0.65;0.30;;;;;;;30.50;23.87;98110.91;5069552;28;20028;-81
2021/08/18 03:20:30;;;;;;;1.75;0.40;;;;;;;30.56;23.71;98113.91;5063047;28;20032;-81
2021/08/18 03:22:56;;;;;;;0.57;0.45;;;;;;;30.37;23.87;98113.16;5054527;28;20091;-81
2021/08/18 03:25:22;;;;;;;2.05;0.40;;;;;;;30.20;24.11;98100.56;5062766;28;20032;-81
2021/08/18 03:27:48;;;;;;;0.45;0.30;;;;;;;29.99;24.48;98107.25;5054505;28;20025;-81
2021/08/18 03:30:14;;;;;;;0.75;0.30;;;;;;;30.05;24.42;98103.31;5053858;28;20094;-81
2021/08/18 03:32:40;;;;;;;0.40;0.40;;;;;;;30.06;24.36;98099.19;5062212;28;20098;-81
2021/08/18 03:35:07;;;;;;;0.20;0.20;;;;;;;30.11;24.27;98094.94;5054489;28;20123;-81
2021/08/18 03:37:33;;;;;;;1.63;0.30;;;;;;;30.37;23.91;98096.16;5065042;28;20029;-81
2021/08/18 03:39:59;;;;;;;1.65;0.20;;;;;;;30.61;23.62;98099.09;5054331;28;20036;-81
2021/08/18 03:42:25;;;;;;;0.28;0.28;;;;;;;30.72;23.33;98093.66;5059708;28;20120;-81
2021/08/18 03:44:51;;;;;;;0.45;0.32;;;;;;;30.77;23.47;98099.50;5060575;28;20130;-81
2021/08/18 03:47:17;;;;;;;2.28;0.30;;;;;;;30.76;23.20;98091.44;5063599;28;20409;-81
2021/08/18 03:49:43;;;;;;;1.33;0.40;;;;;;;30.75;23.47;98087.84;5055463;28;20044;-81
2021/08/18 03:52:09;;;;;;;0.40;0.30;;;;;;;30.53;23.41;98095.78;5053407;28;20100;-81
2021/08/18 03:54:35;;;;;;;0.38;0.30;;;;;;;30.42;23.67;98100.41;5061274;28;20036;-81
2021/08/18 03:57:01;;;;;;;0.85;0.50;;;;;;;30.50;23.75;98098.81;5061690;28;20033;-81
2021/08/18 03:59:27;;;;;;;0.28;0.25;;;;;;;30.73;23.41;98098.88;5053830;28;20480;-81
2021/08/18 04:01:53;;;;;;;1.98;0.50;;;;;;;31.01;22.85;98104.44;5053433;28;20594;-81
2021/08/18 04:04:19;;;;;;;1.85;0.30;;;;;;;30.86;23.36;98103.53;5055703;28;20459;-81
2021/08/18 04:06:45;;;;;;;0.40;0.30;;;;;;;30.48;23.70;98107.00;5072879;28;20059;-81
2021/08/18 04:09:12;;;;;;;0.38;0.30;;;;;;;30.16;24.27;98102.81;5061098;28;20068;-81
2021/08/18 04:11:38;;;;;;;0.63;0.38;;;;;;;30.06;24.51;98104.84;5058531;28;20548;-81
2021/08/18 04:14:04;;;;;;;0.30;0.30;;;;;;;30.12;24.70;98107.06;5057358;28;20029;-81
2021/08/18 04:16:30;;;;;;;1.10;0.22;;;;;;;30.35;24.35;98118.53;5058621;28;20037;-81
2021/08/18 04:18:56;;;;;;;0.45;0.35;;;;;;;30.48;24.17;98116.28;5068602;28;20029;-81
2021/08/18 04:21:22;;;;;;;0.45;0.40;;;;;;;29.57;25.41;98106.28;5068815;28;20101;-81
2021/08/18 04:23:48;;;;;;;0.40;0.40;;;;;;;29.25;25.59;98108.44;5069050;28;20032;-81
2021/08/18 04:26:14;;;;;;;0.50;0.50;;;;;;;28.87;26.86;98102.34;5065511;28;20041;-81
2021/08/18 04:28:40;;;;;;;0.47;0.47;;;;;;;28.85;26.61;98098.41;5062953;28;20037;-81
2021/08/18 04:31:06;;;;;;;1.40;0.63;;;;;;;28.72;26.57;98101.38;5074862;28;20028;-81
2021/08/18 04:33:35;;;;;;;0.77;0.50;;;;;;;28.94;26.64;98106.94;5076419;28;20029;-81
2021/08/18 04:36:01;;;;;;;0.40;0.40;;;;;;;29.01;26.18;98106.66;5062061;28;20098;-81
2021/08/18 04:38:27;;;;;;;2.38;0.95;;;;;;;28.82;26.66;98102.19;5056520;28;20029;-81
2021/08/18 04:40:53;;;;;;;1.23;0.95;;;;;;;28.24;27.28;98105.66;5068459;28;20107;-81
2021/08/18 04:43:19;;;;;;;0.52;0.52;;;;;;;28.82;27.15;98099.38;5075820;28;20115;-81
2021/08/18 04:45:45;;;;;;;0.30;0.30;;;;;;;29.66;25.65;98101.44;5069594;28;20087;-81
2021/08/18 04:48:12;;;;;;;0.77;0.52;;;;;;;30.37;24.46;98101.03;5064186;28;20090;-81
2021/08/18 04:50:38;;;;;;;1.13;0.40;;;;;;;30.52;25.13;98099.13;5061168;28;20031;-81
2021/08/18 04:53:12;;;;;;;0.47;0.40;;;;;;;30.44;25.12;98098.66;5061437;28;20107;-81
2021/08/18 04:55:39;;;;;;;0.60;0.60;;;;;;;30.36;25.92;98099.50;5057070;28;20090;-81
2021/08/18 04:58:06;;;;;;;3.80;0.55;;;;;;;30.26;25.45;98095.88;5059411;28;20032;-81
2021/08/18 05:00:32;;;;;;;1.00;0.50;;;;;;;30.37;25.94;98106.72;5064563;28;20037;-81
2021/08/18 05:02:58;;;;;;;0.40;0.40;;;;;;;30.63;25.77;98094.50;5057915;28;20037;-81
2021/08/18 05:05:24;;;;;;;0.60;0.52;;;;;;;30.80;25.92;98094.91;5059602;28;20400;-81
2021/08/18 05:07:51;;;;;;;2.05;0.55;;;;;;;31.06;25.88;98098.13;5068474;28;20083;-81
2021/08/18 05:10:18;;;;;;;0.50;0.40;;;;;;;31.40;25.46;98117.44;5055177;28;20116;-81
2021/08/18 05:12:44;;;;;;;0.70;0.50;;;;;;;31.23;24.53;98110.59;5056673;28;20037;-80
2021/08/18 05:15:10;;;;;;;1.77;0.50;;;;;;;31.06;24.85;98120.81;5057375;28;22372;-80
2021/08/18 05:17:37;;;;;;;1.02;0.50;;;;;;;31.06;24.73;98117.97;5055480;28;20040;-80
2021/08/18 05:20:05;;;;;;;0.75;0.50;;;;;;;31.41;24.87;98125.44;5064364;28;20120;-80
2021/08/18 05:22:31;;;;;;;0.50;0.50;;;;;;;31.79;24.65;98124.72;5056344;28;20362;-80
2021/08/18 05:24:57;;;;;;;0.68;0.43;;;;;;;32.15;24.58;98128.53;5069177;28;20037;-80
2021/08/18 05:27:23;;;;;;;2.00;0.60;;;;;;;32.18;23.57;98114.16;5065266;28;20557;-80
2021/08/18 05:29:49;;;;;;;1.10;0.90;;;;;;;31.30;24.98;98121.59;5070179;28;20035;-80
2021/08/18 05:32:15;;;;;;;0.82;0.73;;;;;;;30.86;25.49;98127.00;5075295;28;20056;-80
2021/08/18 05:34:41;;;;;;;0.47;0.35;;;;;;;30.86;25.51;98123.38;5074190;28;20029;-80
2021/08/18 05:37:07;;;;;;;0.82;0.50;;;;;;;30.90;25.46;98124.81;5075275;28;20024;-80
2021/08/18 05:39:33;;;;;;;1.17;0.68;;;;;;;30.96;26.33;98124.94;5075274;28;20028;-80
2021/08/18 05:41:59;;;;;;;0.93;0.52;;;;;;;30.84;26.11;98131.56;5075287;28;20043;-80
2021/08/18 05:44:25;;;;;;;1.02;0.60;;;;;;;30.76;26.13;98131.13;5075214;28;20143;-80
2021/08/18 05:46:52;;;;;;;0.57;0.50;;;;;;;30.68;26.38;98136.38;5074579;28;20044;-80
2021/08/18 05:49:21;;;;;;;0.88;0.50;;;;;;;30.64;26.15;98134.97;5074982;28;20472;-80
2021/08/18 05:51:49;;;;;;;0.60;0.60;;;;;;;30.74;25.73;98134.47;5075347;28;20028;-80
2021/08/18 05:54:15;;;;;;;0.60;0.40;;;;;;;30.79;25.35;98135.84;5075096;28;20105;-81
2021/08/18 05:56:41;;;;;;;1.42;0.52;;;;;;;30.92;26.05;98127.97;5075317;28;20057;-81
2021/08/18 05:59:08;;;;;;;2.03;0.80;;;;;;;31.02;25.84;98137.19;5074569;28;20028;-80
2021/08/18 06:01:34;;;;;;;2.47;0.80;;;;;;;31.09;25.99;98134.00;5074714;28;20028;-80
2021/08/18 06:04:00;;;;;;;0.80;0.63;;;;;;;30.83;26.61;98133.63;5073837;28;20051;-80
2021/08/18 06:06:28;;;;;;;1.15;0.68;;;;;;;30.81;26.98;98141.06;5074875;28;20031;-80
2021/08/18 06:08:54;;;;;;;1.00;0.75;;;;;;;31.01;26.32;98124.28;5075046;28;20043;-80
2021/08/18 06:11:20;;;;;;;0.65;0.50;;;;;;;31.25;26.63;98131.53;5074716;28;20048;-80
2021/08/18 06:13:46;;;;;;;0.80;0.70;;;;;;;31.48;25.02;98135.72;5077302;28;20119;-80
2021/08/18 06:16:12;;;;;;;0.88;0.65;;;;;;;31.51;25.70;98133.97;5055697;28;20045;-80
2021/08/18 06:18:38;;;;;;;0.70;0.50;;;;;;;31.59;25.45;98135.94;5054724;28;20037;-81
2021/08/18 06:21:05;;;;;;;0.75;0.43;;;;;;;31.86;24.97;98134.91;5054712;28;20082;-81
2021/08/18 06:23:32;;;;;;;0.73;0.32;;;;;;;32.41;24.07;98141.69;5071678;28;20028;-80
2021/08/18 06:25:58;;;;;;;0.68;0.63;;;;;;;32.33;24.38;98145.41;5074312;28;20029;-80
2021/08/18 06:28:25;;;;;;;0.73;0.73;;;;;;;31.27;25.48;98142.44;5074362;28;20044;-81
2021/08/18 06:30:53;;;;;;;1.50;0.80;;;;;;;31.77;26.24;98141.47;5074636;28;20028;-80
2021/08/18 06:33:19;;;;;;;1.08;0.43;;;;;;;32.00;26.21;98140.66;5074895;28;20028;-81
2021/08/18 06:35:45;;;;;;;0.57;0.50;;;;;;;32.50;24.11;98141.63;5074274;28;20090;-81
2021/08/18 06:38:11;;;;;;;0.73;0.65;;;;;;;32.66;23.62;98135.44;5072977;28;20120;-81
2021/08/18 06:40:37;;;;;;;0.50;0.50;;;;;;;33.01;24.00;98144.03;5074390;28;20028;-81
2021/08/18 06:43:04;;;;;;;0.65;0.40;;;;;;;33.40;23.43;98139.69;5074220;28;20033;-81
2021/08/18 06:45:30;;;;;;;1.10;0.70;;;;;;;33.75;22.93;98136.81;5061962;28;20063;-80
2021/08/18 06:47:56;;;;;;;1.85;0.70;;;;;;;33.77;23.53;98136.34;5069597;28;20060;-81
2021/08/18 06:50:22;;;;;;;0.60;0.60;;;;;;;33.79;22.58;98119.53;5074077;28;20042;-81
2021/08/18 06:52:48;;;;;;;0.70;0.60;;;;;;;33.94;23.31;98128.75;5074272;28;20450;-80
2021/08/18 06:55:15;;;;;;;0.55;0.55;;;;;;;33.86;23.05;98121.94;5074077;28;20516;-80
2021/08/18 06:57:41;;;;;;;1.38;0.50;;;;;;;34.02;22.88;98118.47;5073573;28;20035;-81
2021/08/18 07:00:09;;;;;;;0.65;0.57;;;;;;;34.08;23.15;98127.91;5072705;28;20029;-80
2021/08/18 07:02:43;;;;;;;0.90;0.70;;;;;;;34.03;22.26;98125.75;5073831;28;20021;-80
2021/08/18 07:05:10;;;;;;;0.75;0.50;;;;;;;33.74;22.48;98123.06;5073945;28;20024;-81
2021/08/18 07:07:36;;;;;;;1.10;0.65;;;;;;;33.79;23.18;98128.06;5073896;28;20032;-81
2021/08/18 07:10:02;;;;;;;1.50;0.50;;;;;;;33.83;21.86;98114.38;5073682;28;20393;-80
2021/08/18 07:12:29;;;;;;;0.85;0.43;;;;;;;33.50;22.09;98122.47;5073191;28;20071;-80
2021/08/18 07:14:55;;;;;;;2.80;0.85;;;;;;;33.27;23.09;98127.09;5073561;28;20037;-80
2021/08/18 07:17:21;;;;;;;0.50;0.50;;;;;;;33.45;23.99;98121.13;5060776;28;20036;-81
2021/08/18 07:19:47;;;;;;;1.13;0.70;;;;;;;33.63;22.10;98131.50;5072272;28;20086;-80
2021/08/18 07:22:13;;;;;;;0.77;0.70;;;;;;;33.66;22.35;98130.47;5072890;28;20063;-80
2021/08/18 07:24:39;;;;;;;2.85;1.05;;;;;;;33.77;22.55;98130.63;5073535;28;20060;-80
2021/08/18 07:27:06;;;;;;;1.25;0.70;;;;;;;33.77;22.32;98128.53;5073168;28;20033;-80
2021/08/18 07:29:32;;;;;;;1.63;0.50;;;;;;;33.75;23.03;98127.50;5073385;28;20158;-80
2021/08/18 07:31:58;;;;;;;0.82;0.70;;;;;;;33.68;22.10;98131.53;5073465;28;20050;-80
2021/08/18 07:34:24;;;;;;;1.23;0.80;;;;;;;33.54;22.86;98135.25;5069720;28;20115;-81
2021/08/18 07:36:50;;;;;;;0.77;0.60;;;;;;;33.30;23.03;98137.50;5076155;28;20546;-80
2021/08/18 07:39:16;;;;;;;1.13;0.80;;;;;;;33.47;23.48;98134.88;5072746;28;20481;-80
2021/08/18 07:41:42;;;;;;;0.80;0.60;;;;;;;33.53;23.24;98142.25;5072937;28;20431;-81
2021/08/18 07:44:08;;;;;;;1.80;0.75;;;;;;;33.47;23.09;98141.34;5072649;28;20074;-81
2021/08/18 07:46:34;;;;;;;1.63;0.80;;;;;;;33.53;22.28;98144.28;5072064;28;20436;-81
2021/08/18 07:49:00;;;;;;;0.88;0.70;;;;;;;33.38;22.78;98138.63;5073043;28;20515;-80
2021/08/18 07:51:26;;;;;;;1.45;0.60;;;;;;;33.69;23.45;98135.19;5072997;28;20469;-81
2021/08/18 07:53:53;;;;;;;2.00;0.90;;;;;;;33.94;22.95;98138.09;5073193;28;20540;-81
2021/08/18 07:56:19;;;;;;;2.33;0.77;;;;;;;33.91;21.57;98133.38;5072926;28;20115;-81
2021/08/18 07:58:45;;;;;;;3.05;1.02;;;;;;;33.68;22.96;98133.63;5073343;28;20480;-81
2021/08/18 08:01:11;;;;;;;0.98;0.68;;;;;;;33.38;22.30;98133.72;5073379;28;20493;-81
2021/08/18 08:03:37;;;;;;;1.23;0.60;;;;;;;33.79;22.48;98130.91;5073033;28;20033;-81
2021/08/18 08:06:03;;;;;;;0.60;0.60;;;;;;;34.07;22.83;98134.91;5073263;28;20081;-81
2021/08/18 08:08:29;;;;;;;6.72;0.90;;;;;;;34.30;21.83;98139.53;5073159;28;20119;-80
2021/08/18 08:10:55;;;;;;;2.35;0.98;;;;;;;34.31;21.39;98131.78;5072709;28;20052;-81
2021/08/18 08:13:21;;;;;;;2.63;1.20;;;;;;;34.45;22.45;98125.19;5072812;28;20032;-81
2021/08/18 08:15:47;;;;;;;0.75;0.55;;;;;;;34.24;21.76;98132.97;5073267;28;20037;-81
2021/08/18 08:18:13;;;;;;;3.30;0.80;;;;;;;34.18;21.38;98126.47;5072796;28;20040;-81
2021/08/18 08:20:39;;;;;;;1.27;0.65;;;;;;;34.28;22.58;98127.06;5056991;28;20033;-81
2021/08/18 08:23:06;;;;;;;1.15;0.85;;;;;;;34.26;22.08;98121.84;5072673;28;20496;-81
2021/08/18 08:25:32;;;;;;;0.85;0.70;;;;;;;34.20;22.59;98129.59;5072349;28;20473;-80
2021/08/18 08:27:58;;;;;;;1.20;0.93;;;;;;;33.84;21.85;98125.25;5071559;28;20035;-81
2021/08/18 08:30:24;;;;;;;0.93;0.70;;;;;;;33.98;21.11;98120.78;5072792;28;20500;-80
2021/08/18 08:32:51;;;;;;;1.70;0.98;;;;;;;33.81;21.90;98112.03;5072819;28;20111;-80
2021/08/18 08:35:17;;;;;;;2.67;1.33;;;;;;;33.27;21.74;98116.50;5072875;28;20028;-81
2021/08/18 08:37:43;;;;;;;1.42;1.02;;;;;;;33.66;22.09;98121.94;5072683;28;20032;-81
2021/08/18 08:40:10;;;;;;;1.15;0.70;;;;;;;33.87;22.39;98115.72;5072671;28;20033;-80
2021/08/18 08:42:40;;;;;;;1.15;0.68;;;;;;;33.86;22.31;98116.22;5065309;28;20548;-81
2021/08/18 08:45:07;;;;;;;1.42;1.13;;;;;;;34.11;22.22;98109.81;5072797;28;20051;-81
2021/08/18 08:47:37;;;;;;;1.85;0.88;;;;;;;33.69;21.52;98104.63;5071343;28;20048;-81
2021/08/18 08:50:06;;;;;;;1.63;1.00;;;;;;;33.28;21.78;98108.75;5074255;28;20032;-80
2021/08/18 08:52:33;;;;;;;1.50;0.90;;;;;;;33.30;22.02;98103.34;5076308;28;20740;-81
2021/08/18 08:55:00;;;;;;;1.10;0.80;;;;;;;33.66;22.67;98102.78;5075925;28;20445;-80
2021/08/18 08:57:26;;;;;;;2.30;0.90;;;;;;;33.75;22.08;98099.03;5076303;28;20029;-81
2021/08/18 08:59:52;;;;;;;2.35;0.77;;;;;;;33.63;22.64;98097.31;5076135;28;20082;-80
2021/08/18 09:02:21;;;;;;;1.10;0.88;;;;;;;34.01;21.94;98100.59;5076349;28;20424;-81
2021/08/18 09:04:48;;;;;;;1.35;0.70;;;;;;;34.21;21.75;98099.81;5076237;28;20020;-80
2021/08/18 09:07:22;;;;;;;1.25;0.90;;;;;;;34.01;22.41;98100.59;5076692;28;20055;-80
2021/08/18 09:09:57;;;;;;;1.30;0.80;;;;;;;34.19;21.55;98102.38;5074740;28;20127;-81
2021/08/18 09:12:35;;;;;;;1.10;0.70;;;;;;;34.10;21.86;98096.06;5069680;28;20029;-81
2021/08/18 09:15:18;;;;;;;2.03;0.85;;;;;;;34.11;21.99;98097.63;5056070;28;20037;-81
2021/08/18 09:17:45;;;;;;;1.70;1.00;;;;;;;34.54;22.46;98102.97;5068680;28;20043;-81
2021/08/18 09:20:14;;;;;;;1.45;1.02;;;;;;;34.59;21.35;98102.25;5074297;28;20064;-81
2021/08/18 09:23:03;;;;;;;1.27;1.10;;;;;;;34.99;20.80;98095.53;5075712;28;20025;-80
2021/08/18 09:25:30;;;;;;;2.42;1.08;;;;;;;34.75;21.61;98095.88;5075725;28;20052;-80
2021/08/18 09:28:04;;;;;;;1.17;0.90;;;;;;;34.89;22.38;98091.34;5075895;28;20111;-80
2021/08/18 09:30:39;;;;;;;0.73;0.70;;;;;;;35.17;20.20;98083.72;5075646;28;20389;-80
2021/08/18 09:33:14;;;;;;;1.25;1.00;;;;;;;35.16;20.78;98089.97;5075708;28;20047;-81
2021/08/18 09:35:41;;;;;;;1.48;0.90;;;;;;;35.38;20.16;98082.28;5075494;28;20024;-80
2021/08/18 09:38:10;;;;;;;1.45;0.77;;;;;;;35.43;20.55;98095.03;5075569;28;20033;-81
2021/08/18 09:40:43;;;;;;;1.65;1.00;;;;;;;35.61;19.39;98083.22;5071080;28;20024;-80
2021/08/18 09:43:14;;;;;;;1.90;1.15;;;;;;;35.64;20.00;98079.31;5055774;28;20029;-80
2021/08/18 09:45:43;;;;;;;1.95;1.40;;;;;;;35.91;20.63;98075.78;5057072;28;20099;-80
2021/08/18 09:48:11;;;;;;;1.52;0.90;;;;;;;35.94;19.57;98079.69;5075200;28;20052;-80
2021/08/18 09:51:03;;;;;;;1.52;1.10;;;;;;;34.88;20.29;98086.91;5075083;28;20032;-80
2021/08/18 09:53:40;;;;;;;2.22;1.08;;;;;;;34.73;20.88;98087.06;5075076;28;20029;-80
2021/08/18 09:56:11;;;;;;;1.45;1.35;;;;;;;34.41;21.36;98091.16;5075498;28;20043;-80
2021/08/18 09:58:46;;;;;;;2.13;1.25;;;;;;;34.00;21.68;98081.16;5075131;28;20108;-81
2021/08/18 10:01:14;;;;;;;1.33;0.90;;;;;;;34.02;21.46;98078.59;5074580;28;20086;-80
2021/08/18 10:03:47;;;;;;;1.58;1.08;;;;;;;33.98;22.38;98083.75;5074969;28;20029;-80
2021/08/18 10:06:15;;;;;;;1.85;1.25;;;;;;;34.22;21.80;98084.25;5074828;28;20079;-80
2021/08/18 10:08:44;;;;;;;1.83;1.40;;;;;;;34.19;21.74;98090.97;5075213;28;20115;-80
2021/08/18 10:11:17;;;;;;;2.45;1.48;;;;;;;33.51;21.55;98084.19;5067892;28;20087;-80
2021/08/18 10:13:44;;;;;;;2.13;1.42;;;;;;;32.97;22.31;98083.69;5055060;28;20408;-80
2021/08/18 10:16:10;;;;;;;3.60;1.30;;;;;;;33.63;22.91;98081.00;5055184;28;20040;-80
2021/08/18 10:18:40;;;;;;;2.42;1.40;;;;;;;33.79;22.05;98073.94;5074746;28;20067;-80
2021/08/18 10:21:11;;;;;;;1.95;1.30;;;;;;;33.47;22.21;98078.69;5073935;28;20499;-80
2021/08/18 10:23:46;;;;;;;2.78;1.80;;;;;;;32.71;22.46;98075.03;5074556;28;20024;-80
2021/08/18 10:26:34;;;;;;;2.03;1.35;;;;;;;32.15;22.81;98074.56;5074432;28;20052;-80
2021/08/18 10:29:06;;;;;;;4.05;1.70;;;;;;;32.59;22.19;98076.13;5074382;28;20036;-80
2021/08/18 10:31:55;;;;;;;2.75;2.05;;;;;;;32.34;22.90;98079.56;5073208;28;20038;-80
2021/08/18 10:34:47;;;;;;;2.22;1.45;;;;;;;32.25;22.30;98074.00;5074547;28;20036;-80
2021/08/18 10:40:36;;;;;;;3.17;1.80;;;;;;;32.12;22.88;98072.69;5071921;28;20491;-80
2021/08/18 10:43:02;;;;;;;2.17;1.85;;;;;;;32.33;22.15;98074.34;5070788;28;20119;-80
2021/08/18 10:45:36;;;;;;;4.80;1.95;;;;;;;32.89;21.70;98062.63;5074176;28;20384;-80
2021/08/18 10:48:03;;;;;;;2.78;1.75;;;;;;;33.48;20.83;98063.19;5073694;28;20091;-80
2021/08/18 10:50:41;;;;;;;2.58;1.42;;;;;;;33.87;20.78;98060.81;5073819;28;20079;-80
2021/08/18 10:53:27;;;;;;;1.80;1.45;;;;;;;33.45;21.88;98064.19;5072821;28;20094;-80
2021/08/18 10:55:53;;;;;;;2.70;1.75;;;;;;;34.08;20.22;98060.28;5073408;28;20037;-80
2021/08/18 10:58:30;;;;;;;2.38;1.92;;;;;;;33.84;21.52;98064.69;5073935;28;20028;-80
2021/08/18 11:00:56;;;;;;;3.88;1.85;;;;;;;33.26;21.78;98062.88;5069407;28;20473;-80
2021/08/18 11:03:31;;;;;;;2.42;1.58;;;;;;;33.49;21.77;98058.28;5072405;28;20119;-80
2021/08/18 11:05:58;;;;;;;2.65;1.95;;;;;;;34.10;19.94;98051.22;5073710;28;20111;-80
2021/08/18 11:08:25;;;;;;;3.90;2.40;;;;;;;33.75;21.63;98054.22;5073714;28;20488;-80
2021/08/18 11:10:55;;;;;;;3.22;2.38;;;;;;;33.89;21.93;98046.84;5062087;28;20032;-80
2021/08/18 11:13:47;;;;;;;2.70;1.80;;;;;;;34.09;20.21;98052.53;5072978;28;20086;-80
2021/08/18 11:16:30;;;;;;;2.40;1.77;;;;;;;34.03;21.17;98055.31;5073310;28;20494;-80
2021/08/18 11:19:00;;;;;;;3.05;1.65;;;;;;;34.44;20.87;98047.41;5073158;28;20048;-80
2021/08/18 11:21:32;;;;;;;3.13;1.90;;;;;;;34.58;20.88;98051.41;5072334;28;20087;-80
2021/08/18 11:24:06;;;;;;;1.60;1.48;;;;;;;34.47;20.99;98052.06;5073599;28;20032;-80
2021/08/18 11:26:35;;;;;;;3.20;1.95;;;;;;;34.25;20.34;98059.66;5073473;28;20020;-80
2021/08/18 11:29:13;;;;;;;3.50;1.77;;;;;;;34.42;20.60;98054.91;5073205;28;20118;-80
2021/08/18 11:31:42;;;;;;;1.83;1.48;;;;;;;34.23;21.25;98050.84;5069437;28;20037;-80
2021/08/18 11:34:27;;;;;;;3.55;1.33;;;;;;;35.09;19.81;98044.78;5070283;28;20062;-80
2021/08/18 11:37:06;;;;;;;2.47;1.63;;;;;;;35.74;19.55;98032.06;5073594;28;20029;-80
2021/08/18 11:39:35;;;;;;;1.50;1.20;;;;;;;36.22;19.01;98034.00;5073427;28;20081;-80
2021/08/18 11:42:13;;;;;;;1.83;1.30;;;;;;;36.34;18.65;98032.72;5073763;28;20081;-80